Ora Direzione Vento Velocita' Vento Media Vento Raffica Max. Temperatura Wind Chill Pioggia Pressione
03:49:55.018 °(NNE)6.42 Kts5.44 Kts7.4 Kts2.8 °C0.0 °C0.0 mm1028.2 Hpa
03:29:49.014 °(NNE)6.42 Kts6.42 Kts7.4 Kts2.2 °C-1.1 °C0.0 mm1028.2 Hpa
03:07:46.021 °(NNE)5.44 Kts4.67 Kts7.4 Kts2.7 °C0.3 °C0.0 mm1028.3 Hpa
02:49:40.016 °(NNE)6.42 Kts6.42 Kts7.4 Kts2.2 °C-1.1 °C0.0 mm1028.4 Hpa
02:29:33.08 °(N)6.42 Kts4.67 Kts7.4 Kts2.4 °C-0.1 °C0.0 mm1028.5 Hpa
02:09:33.025 °(NNE)5.44 Kts4.67 Kts7.4 Kts2.4 °C-0.1 °C0.0 mm1028.4 Hpa
01:49:05.017 °(NNE)5.44 Kts3.69 Kts6.4 Kts2.3 °C0.3 °C0.0 mm1028.5 Hpa
01:29:10.010 °(N)6.42 Kts5.44 Kts6.4 Kts2.0 °C-0.9 °C0.0 mm1028.6 Hpa
01:09:01.011 °(N)6.42 Kts4.67 Kts6.4 Kts2.3 °C-0.2 °C0.0 mm1028.5 Hpa
00:00:53.0327 °(NNW)5.44 Kts3.69 Kts12.1 Kts2.6 °C0.7 °C0.0 mm1028.7 Hpa
00:00:53.0327 °(NNW)5.44 Kts3.69 Kts12.1 Kts2.6 °C0.7 °C0.0 mm1028.7 Hpa
00:00:53.0327 °(NNW)5.44 Kts3.69 Kts12.1 Kts2.6 °C0.7 °C0.0 mm1028.7 Hpa
23:49:16.031 °(NNE)5.44 Kts3.69 Kts12.1 Kts2.9 °C1.0 °C0.0 mm1028.8 Hpa
23:29:26.030 °(NNE)5.44 Kts5.44 Kts12.1 Kts2.5 °C-0.3 °C0.0 mm1029.0 Hpa
23:09:32.030 °(NNE)5.44 Kts4.67 Kts12.1 Kts2.9 °C0.5 °C0.0 mm1029.1 Hpa
22:49:27.027 °(NNE)5.44 Kts3.69 Kts12.1 Kts3.8 °C2.1 °C0.0 mm1029.1 Hpa
22:29:30.032 °(NNE)5.44 Kts3.69 Kts12.1 Kts4.1 °C2.4 °C0.0 mm1029.1 Hpa
22:09:23.04 °(N)6.42 Kts5.44 Kts12.1 Kts4.1 °C1.6 °C0.0 mm1029.1 Hpa
21:49:01.0348 °(NNW)5.44 Kts3.69 Kts12.1 Kts4.3 °C2.6 °C0.0 mm1029.0 Hpa
21:28:58.0350 °(N)3.69 Kts3.69 Kts12.1 Kts4.2 °C2.5 °C0.0 mm1029.1 Hpa